Time;durP1;ratioP1;P1;durP2;ratioP2;P2;SDS_P1;SDS_P2;PMS_P1;PMS_P2;Temp;Humidity;BMP_temperature;BMP_pressure;BME280_temperature;BME280_humidity;BME280_pressure;Samples;Min_cycle;Max_cycle;Signal;HPM_P1;HPM_P2
2023/12/29 00:00:30;;;;;;;11.03;10.77;;;10.50;99.90;;;;;;5037894;28;20575;-71
2023/12/29 00:02:57;;;;;;;10.97;10.67;;;10.60;99.90;;;;;;5033880;28;20485;-71
2023/12/29 00:05:24;;;;;;;10.50;10.30;;;10.60;99.90;;;;;;5040949;28;20454;-73
2023/12/29 00:07:51;;;;;;;11.13;10.83;;;10.60;99.90;;;;;;5035358;28;20468;-73
2023/12/29 00:10:18;;;;;;;10.67;10.47;;;10.60;99.90;;;;;;5037433;28;20506;-70
2023/12/29 00:12:45;;;;;;;11.30;11.00;;;10.60;99.90;;;;;;5046784;28;20448;-72
2023/12/29 00:15:13;;;;;;;11.47;11.17;;;10.60;99.90;;;;;;5044172;28;20554;-74
2023/12/29 00:17:40;;;;;;;11.50;11.20;;;10.70;99.90;;;;;;5037596;28;20463;-73
2023/12/29 00:20:08;;;;;;;11.47;11.17;;;10.70;99.90;;;;;;5046468;28;20472;-71
2023/12/29 00:22:35;;;;;;;11.27;10.97;;;10.80;99.90;;;;;;5038016;28;20838;-71
2023/12/29 00:25:02;;;;;;;11.07;10.77;;;10.70;99.90;;;;;;5043557;28;20460;-69
2023/12/29 00:27:29;;;;;;;11.40;11.10;;;10.70;99.90;;;;;;5050963;28;20455;-71
2023/12/29 00:29:56;;;;;;;11.33;11.03;;;10.80;99.90;;;;;;5036969;28;20491;-71
2023/12/29 00:32:24;;;;;;;12.03;11.73;;;10.80;99.90;;;;;;5043443;28;20463;-71
2023/12/29 00:34:51;;;;;;;12.00;11.70;;;10.80;99.90;;;;;;5044095;28;20499;-70
2023/12/29 00:37:17;;;;;;;11.60;11.30;;;10.80;99.90;;;;;;5034220;28;20848;-71
2023/12/29 00:39:44;;;;;;;11.43;11.13;;;10.70;99.90;;;;;;5036516;28;20506;-72
2023/12/29 00:42:11;;;;;;;11.53;11.23;;;10.80;99.90;;;;;;5036049;28;20468;-71
2023/12/29 00:44:38;;;;;;;11.70;11.40;;;10.70;99.90;;;;;;5045262;28;20461;-71
2023/12/29 00:47:05;;;;;;;12.00;11.70;;;10.70;99.90;;;;;;5031525;28;20469;-70
2023/12/29 00:49:33;;;;;;;11.33;11.03;;;10.80;99.90;;;;;;5040594;28;20469;-71
2023/12/29 00:52:02;;;;;;;11.33;11.03;;;10.80;99.90;;;;;;5038921;28;20492;-72
2023/12/29 00:54:29;;;;;;;11.60;11.30;;;10.70;99.90;;;;;;5050194;28;20492;-70
2023/12/29 00:56:56;;;;;;;11.50;11.20;;;10.70;99.90;;;;;;5049603;28;20496;-70
2023/12/29 00:59:22;;;;;;;11.70;11.40;;;10.70;99.90;;;;;;5039058;28;20865;-70
2023/12/29 01:01:50;;;;;;;11.53;11.23;;;10.70;99.90;;;;;;5049428;28;20463;-70
2023/12/29 01:04:17;;;;;;;11.40;11.10;;;10.70;99.90;;;;;;5030946;28;21034;-72
2023/12/29 01:06:45;;;;;;;11.07;10.77;;;10.70;99.90;;;;;;5045329;28;20962;-72
2023/12/29 01:09:12;;;;;;;11.23;10.93;;;10.60;99.90;;;;;;5049341;28;20460;-72
2023/12/29 01:11:39;;;;;;;10.80;10.60;;;10.60;99.90;;;;;;5043561;28;20456;-72
2023/12/29 01:14:06;;;;;;;11.10;10.80;;;10.60;99.90;;;;;;5030661;28;20488;-70
2023/12/29 01:16:33;;;;;;;10.83;10.63;;;10.60;99.90;;;;;;5029956;28;20555;-71
2023/12/29 01:19:00;;;;;;;11.00;10.70;;;10.50;99.90;;;;;;5034696;28;20547;-70
2023/12/29 01:21:27;;;;;;;10.73;10.53;;;10.50;99.90;;;;;;5049350;28;20469;-73
2023/12/29 01:23:56;;;;;;;10.67;10.47;;;10.50;99.90;;;;;;5049302;28;20547;-73
2023/12/29 01:26:23;;;;;;;10.97;10.67;;;10.40;99.90;;;;;;5043981;28;20455;-73
2023/12/29 01:28:50;;;;;;;10.10;9.90;;;10.40;99.90;;;;;;5049112;28;20553;-70
2023/12/29 01:31:16;;;;;;;10.63;10.43;;;10.40;99.90;;;;;;5044134;28;20461;-70
2023/12/29 01:33:44;;;;;;;10.50;10.30;;;10.50;99.90;;;;;;5034952;28;20483;-70
2023/12/29 01:36:18;;;;;;;10.87;10.63;;;10.40;99.90;;;;;;5040196;28;20521;-70
2023/12/29 01:38:45;;;;;;;10.87;10.67;;;10.40;99.90;;;;;;5048788;28;20797;-69
2023/12/29 01:41:14;;;;;;;10.60;10.40;;;10.40;99.90;;;;;;5048903;28;20457;-69
2023/12/29 01:44:15;;;;;;;10.50;10.30;;;10.40;99.90;;;;;;5041344;28;20461;-70
2023/12/29 01:46:43;;;;;;;10.60;10.40;;;10.40;99.90;;;;;;5038946;28;20952;-72
2023/12/29 01:49:12;;;;;;;11.07;10.77;;;10.30;99.90;;;;;;5048786;28;20467;-70
2023/12/29 01:51:39;;;;;;;10.40;10.20;;;10.30;99.90;;;;;;5039298;28;20515;-70
2023/12/29 01:54:05;;;;;;;9.90;9.70;;;10.30;99.90;;;;;;5043698;28;20476;-70
2023/12/29 01:56:33;;;;;;;10.20;10.00;;;10.30;99.90;;;;;;5048233;28;20459;-72
2023/12/29 01:59:00;;;;;;;10.17;9.97;;;10.30;99.90;;;;;;5043355;28;20458;-71
2023/12/29 02:01:28;;;;;;;10.13;9.93;;;10.30;99.90;;;;;;5039244;28;21002;-70
2023/12/29 02:03:55;;;;;;;10.03;9.83;;;10.40;99.90;;;;;;5038323;28;20458;-72
2023/12/29 02:06:23;;;;;;;10.10;9.90;;;10.40;99.90;;;;;;5046186;28;20927;-71
2023/12/29 02:08:51;;;;;;;9.50;9.30;;;10.40;99.90;;;;;;5048395;28;20456;-71
2023/12/29 02:11:18;;;;;;;9.27;9.07;;;10.40;99.90;;;;;;5043712;28;20456;-71
2023/12/29 02:13:46;;;;;;;8.63;8.53;;;10.30;99.90;;;;;;5046673;28;20488;-71
2023/12/29 02:16:20;;;;;;;7.50;7.40;;;10.20;99.90;;;;;;5043697;28;20555;-72
2023/12/29 02:18:51;;;;;;;7.30;7.20;;;10.10;99.90;;;;;;5042043;28;20824;-71
2023/12/29 02:21:18;;;;;;;7.73;7.63;;;9.90;99.90;;;;;;5038952;28;21263;-71
2023/12/29 02:23:45;;;;;;;7.50;7.40;;;9.80;99.90;;;;;;5046048;28;20903;-70
2023/12/29 02:26:17;;;;;;;7.10;7.00;;;9.60;99.90;;;;;;5041884;28;20460;-71
2023/12/29 02:28:49;;;;;;;6.87;6.77;;;9.60;99.90;;;;;;5041268;28;20521;-71
2023/12/29 02:31:20;;;;;;;6.33;6.23;;;9.50;99.90;;;;;;5039874;28;20459;-71
2023/12/29 02:33:49;;;;;;;7.00;6.90;;;9.50;99.90;;;;;;5045842;28;20464;-71
2023/12/29 02:36:17;;;;;;;6.60;6.50;;;9.50;99.90;;;;;;5038828;28;20878;-71
2023/12/29 02:38:45;;;;;;;6.67;6.57;;;9.50;99.90;;;;;;5038458;28;20547;-71
2023/12/29 02:41:14;;;;;;;6.37;6.27;;;9.50;99.90;;;;;;5047483;28;20478;-70
2023/12/29 02:43:41;;;;;;;6.53;6.43;;;9.60;99.90;;;;;;5040616;28;20493;-69
2023/12/29 02:46:08;;;;;;;6.43;6.33;;;9.60;99.90;;;;;;5046193;28;20515;-70
2023/12/29 02:48:35;;;;;;;6.50;6.40;;;9.70;99.90;;;;;;5037954;28;20465;-70
2023/12/29 02:51:02;;;;;;;6.50;6.40;;;9.70;99.90;;;;;;5042020;28;20962;-71
2023/12/29 02:53:29;;;;;;;5.63;5.53;;;9.60;99.90;;;;;;5035052;28;20481;-69
2023/12/29 02:55:56;;;;;;;6.00;5.90;;;9.60;99.90;;;;;;5038402;28;20488;-69
2023/12/29 02:58:24;;;;;;;4.83;4.83;;;9.60;99.90;;;;;;5048056;28;20456;-70
2023/12/29 03:00:51;;;;;;;5.50;5.40;;;9.60;99.90;;;;;;5033472;28;20579;-71
2023/12/29 03:03:18;;;;;;;5.23;5.13;;;9.70;99.90;;;;;;5041896;28;20463;-70
2023/12/29 03:05:45;;;;;;;5.70;5.60;;;9.70;99.90;;;;;;5045082;28;20453;-70
2023/12/29 03:08:13;;;;;;;5.77;5.67;;;9.80;99.90;;;;;;5033031;28;20466;-72
2023/12/29 03:10:40;;;;;;;6.70;6.60;;;9.90;99.90;;;;;;5046013;28;20460;-70
2023/12/29 03:13:07;;;;;;;7.20;7.10;;;9.90;99.90;;;;;;5034275;28;20465;-71
2023/12/29 03:15:35;;;;;;;7.17;7.07;;;10.00;99.90;;;;;;5047231;28;20473;-71
2023/12/29 03:18:01;;;;;;;7.40;7.30;;;10.10;99.90;;;;;;5045046;28;20456;-71
2023/12/29 03:20:28;;;;;;;7.37;7.27;;;10.10;99.90;;;;;;5039496;28;20705;-71
2023/12/29 03:22:55;;;;;;;7.93;7.83;;;10.10;99.90;;;;;;5044313;28;20459;-70
2023/12/29 03:25:22;;;;;;;8.00;7.90;;;10.20;99.90;;;;;;5039687;28;20489;-70
2023/12/29 03:27:50;;;;;;;7.63;7.53;;;10.20;99.90;;;;;;5043630;28;20465;-70
2023/12/29 03:30:17;;;;;;;8.43;8.33;;;10.30;99.90;;;;;;5030894;28;20485;-71
2023/12/29 03:32:45;;;;;;;8.30;8.20;;;10.30;99.90;;;;;;5038776;28;20815;-71
2023/12/29 03:35:12;;;;;;;8.43;8.33;;;10.40;99.90;;;;;;5038180;28;20553;-70
2023/12/29 03:37:39;;;;;;;8.67;8.57;;;10.50;99.90;;;;;;5044321;28;20499;-70
2023/12/29 03:40:09;;;;;;;8.67;8.57;;;10.50;99.90;;;;;;5038838;28;20995;-69
2023/12/29 03:42:36;;;;;;;8.53;8.43;;;10.50;99.90;;;;;;5042040;28;20456;-72
2023/12/29 03:45:03;;;;;;;8.80;8.70;;;10.50;99.90;;;;;;5038095;28;21038;-71
2023/12/29 03:47:31;;;;;;;9.23;9.03;;;10.50;99.90;;;;;;5047108;28;20455;-71
2023/12/29 03:49:59;;;;;;;9.47;9.27;;;10.50;99.90;;;;;;5043674;28;20488;-71
2023/12/29 03:52:26;;;;;;;9.17;8.97;;;10.60;99.90;;;;;;5044759;28;20460;-72
2023/12/29 03:54:53;;;;;;;9.43;9.23;;;10.60;99.90;;;;;;5038058;28;20477;-71
2023/12/29 03:57:20;;;;;;;8.87;8.77;;;10.60;99.90;;;;;;5044058;28;20448;-70
2023/12/29 03:59:46;;;;;;;9.17;8.97;;;10.60;99.90;;;;;;5032340;28;20781;-70
2023/12/29 04:02:13;;;;;;;9.10;8.90;;;10.60;99.90;;;;;;5039580;28;20944;-70
2023/12/29 04:04:41;;;;;;;9.17;8.97;;;10.60;99.90;;;;;;5044124;28;21000;-72
2023/12/29 04:07:09;;;;;;;8.63;8.53;;;10.60;99.90;;;;;;5046914;28;20679;-72
2023/12/29 04:09:35;;;;;;;8.57;8.47;;;10.60;99.90;;;;;;5039671;28;20457;-71
2023/12/29 04:12:02;;;;;;;9.20;9.00;;;10.60;99.90;;;;;;5045799;28;20923;-70
2023/12/29 04:14:29;;;;;;;8.57;8.47;;;10.60;99.90;;;;;;5046978;28;20578;-70
2023/12/29 04:16:56;;;;;;;8.60;8.50;;;10.50;99.90;;;;;;5046237;28;20448;-70
2023/12/29 04:19:23;;;;;;;9.10;8.90;;;10.50;99.90;;;;;;5029965;28;20465;-69
2023/12/29 04:21:49;;;;;;;9.30;9.10;;;10.50;99.90;;;;;;5043956;28;20456;-71
2023/12/29 04:24:19;;;;;;;9.07;8.87;;;10.50;99.90;;;;;;5041255;28;20473;-70
2023/12/29 04:26:46;;;;;;;9.33;9.13;;;10.50;99.90;;;;;;5041690;28;20452;-70
2023/12/29 04:29:13;;;;;;;8.47;8.37;;;10.40;99.90;;;;;;5042514;28;20483;-69
2023/12/29 04:31:40;;;;;;;9.23;9.03;;;10.40;99.90;;;;;;5042382;28;20935;-70
2023/12/29 04:34:09;;;;;;;9.70;9.50;;;10.30;99.90;;;;;;5040199;28;20499;-69
2023/12/29 04:36:36;;;;;;;9.77;9.57;;;10.30;99.90;;;;;;5041072;28;20476;-71
2023/12/29 04:39:03;;;;;;;9.90;9.70;;;10.30;99.90;;;;;;5050272;28;20461;-70
2023/12/29 04:41:32;;;;;;;10.10;9.90;;;10.30;99.90;;;;;;5050464;28;20452;-70
2023/12/29 04:43:59;;;;;;;9.50;9.30;;;10.30;99.90;;;;;;5045386;28;20468;-71
2023/12/29 04:46:26;;;;;;;9.63;9.43;;;10.30;99.90;;;;;;5036442;28;20459;-70
2023/12/29 04:48:53;;;;;;;9.93;9.73;;;10.30;99.90;;;;;;5036244;28;20461;-71
2023/12/29 04:51:19;;;;;;;9.70;9.50;;;10.40;99.90;;;;;;5040121;28;20456;-72
2023/12/29 04:53:46;;;;;;;9.63;9.43;;;10.30;99.90;;;;;;5050456;28;20961;-69
2023/12/29 04:56:14;;;;;;;9.47;9.27;;;10.30;99.90;;;;;;5042707;28;20494;-70
2023/12/29 04:58:43;;;;;;;9.70;9.50;;;10.30;99.90;;;;;;5040948;28;20962;-71
2023/12/29 05:01:10;;;;;;;9.57;9.37;;;10.30;99.90;;;;;;5047546;28;20811;-71
2023/12/29 05:03:37;;;;;;;9.90;9.70;;;10.30;99.90;;;;;;5043381;28;20472;-72
2023/12/29 05:06:05;;;;;;;9.23;9.03;;;10.30;99.90;;;;;;5038700;28;20469;-72
2023/12/29 05:08:32;;;;;;;9.47;9.27;;;10.30;99.90;;;;;;5049240;28;20464;-70
2023/12/29 05:11:00;;;;;;;9.47;9.27;;;10.30;99.90;;;;;;5043840;28;20472;-73
2023/12/29 05:13:28;;;;;;;10.27;10.07;;;10.20;99.90;;;;;;5037676;28;20460;-72
2023/12/29 05:15:56;;;;;;;9.87;9.67;;;10.20;99.90;;;;;;5046644;28;20515;-72
2023/12/29 05:18:23;;;;;;;9.93;9.73;;;10.30;99.90;;;;;;5049513;28;20445;-72
2023/12/29 05:20:50;;;;;;;9.83;9.63;;;10.20;99.90;;;;;;5042691;28;20476;-72
2023/12/29 05:23:16;;;;;;;10.00;9.80;;;10.20;99.90;;;;;;5044749;28;20869;-71
2023/12/29 05:25:43;;;;;;;9.70;9.50;;;10.20;99.90;;;;;;5041203;28;20464;-71
2023/12/29 05:28:11;;;;;;;9.70;9.50;;;10.20;99.90;;;;;;5049489;28;20448;-72
2023/12/29 05:30:38;;;;;;;10.40;10.20;;;10.20;99.90;;;;;;5043198;28;20484;-72
2023/12/29 05:33:06;;;;;;;10.13;9.93;;;10.20;99.90;;;;;;5040675;28;20465;-71
2023/12/29 05:35:32;;;;;;;10.10;9.90;;;10.20;99.90;;;;;;5044598;28;20532;-71
2023/12/29 05:37:59;;;;;;;9.87;9.67;;;10.30;99.90;;;;;;5040260;28;20491;-72
2023/12/29 05:40:26;;;;;;;9.90;9.70;;;10.20;99.90;;;;;;5041300;28;20449;-71
2023/12/29 05:42:53;;;;;;;9.67;9.47;;;10.20;99.90;;;;;;5041456;28;20453;-72
2023/12/29 05:45:20;;;;;;;10.00;9.80;;;10.20;99.90;;;;;;5048880;28;20463;-70
2023/12/29 05:47:47;;;;;;;9.77;9.57;;;10.20;99.90;;;;;;5043364;28;20472;-72
2023/12/29 05:50:16;;;;;;;9.90;9.70;;;10.20;99.90;;;;;;5037567;28;20465;-72
2023/12/29 05:52:43;;;;;;;10.03;9.83;;;10.20;99.90;;;;;;5042860;28;20449;-71
2023/12/29 05:55:10;;;;;;;10.13;9.93;;;10.10;99.90;;;;;;5033974;28;20881;-71
2023/12/29 05:57:37;;;;;;;9.83;9.63;;;10.10;99.90;;;;;;5048936;28;20471;-71
2023/12/29 06:00:06;;;;;;;10.10;9.90;;;10.10;99.90;;;;;;5049119;28;20459;-73
2023/12/29 06:02:33;;;;;;;10.40;10.20;;;10.10;99.90;;;;;;5045918;28;20550;-72
2023/12/29 06:05:00;;;;;;;10.47;10.27;;;10.10;99.90;;;;;;5043592;28;20474;-71
2023/12/29 06:07:28;;;;;;;9.90;9.70;;;10.10;99.90;;;;;;5039638;28;20463;-71
2023/12/29 06:09:56;;;;;;;10.17;9.97;;;10.10;99.90;;;;;;5048614;28;20479;-71
2023/12/29 06:12:23;;;;;;;11.10;10.80;;;10.10;99.90;;;;;;5048352;28;20456;-70
2023/12/29 06:14:49;;;;;;;11.10;10.80;;;10.10;99.90;;;;;;5048697;28;20460;-71
2023/12/29 06:17:16;;;;;;;10.07;9.87;;;10.10;99.90;;;;;;5034950;28;20489;-70
2023/12/29 06:19:43;;;;;;;10.00;9.80;;;10.10;99.90;;;;;;5044272;28;20777;-72
2023/12/29 06:22:11;;;;;;;10.60;10.40;;;10.10;99.90;;;;;;5041069;28;20465;-72
2023/12/29 06:24:39;;;;;;;10.23;10.03;;;10.20;99.90;;;;;;5037427;28;20456;-72
2023/12/29 06:27:06;;;;;;;10.50;10.30;;;10.20;99.90;;;;;;5045294;28;20466;-72
2023/12/29 06:29:33;;;;;;;10.50;10.30;;;10.20;99.90;;;;;;5046459;28;20839;-71
2023/12/29 06:32:00;;;;;;;10.13;9.93;;;10.30;99.90;;;;;;5039789;28;20847;-71
2023/12/29 06:34:27;;;;;;;10.50;10.30;;;10.30;99.90;;;;;;5036882;28;20479;-71
2023/12/29 06:36:55;;;;;;;9.90;9.70;;;10.30;99.90;;;;;;5048289;28;20489;-72
2023/12/29 06:39:22;;;;;;;9.90;9.70;;;10.30;99.90;;;;;;5048343;28;20456;-73
2023/12/29 06:41:51;;;;;;;9.93;9.73;;;10.30;99.90;;;;;;5042882;28;20814;-72
2023/12/29 06:44:18;;;;;;;10.23;10.03;;;10.30;99.90;;;;;;5045342;28;20455;-71
2023/12/29 06:46:45;;;;;;;10.10;9.90;;;10.30;99.90;;;;;;5042980;28;20558;-72
2023/12/29 06:49:12;;;;;;;10.40;10.20;;;10.30;99.90;;;;;;5039912;28;20781;-73
2023/12/29 06:51:40;;;;;;;10.03;9.83;;;10.30;99.90;;;;;;5036519;28;21417;-74
2023/12/29 06:54:08;;;;;;;10.10;9.90;;;10.40;99.90;;;;;;5040357;28;20464;-71
2023/12/29 06:56:35;;;;;;;10.17;9.97;;;10.40;99.90;;;;;;5047532;28;20962;-71
2023/12/29 06:59:03;;;;;;;9.93;9.73;;;10.40;99.90;;;;;;5042525;28;20807;-73
2023/12/29 07:01:30;;;;;;;10.43;10.23;;;10.50;99.90;;;;;;5044270;28;20455;-72
2023/12/29 07:03:57;;;;;;;9.83;9.63;;;10.50;99.90;;;;;;5034397;28;20472;-72
2023/12/29 07:06:24;;;;;;;9.80;9.60;;;10.40;99.90;;;;;;5035821;28;20471;-71
2023/12/29 07:08:51;;;;;;;9.90;9.70;;;10.40;99.90;;;;;;5045436;28;20456;-71
2023/12/29 07:11:18;;;;;;;9.97;9.77;;;10.40;99.90;;;;;;5047571;28;20466;-72
2023/12/29 07:13:45;;;;;;;9.93;9.73;;;10.40;99.90;;;;;;5045891;28;20824;-72
2023/12/29 07:16:13;;;;;;;9.87;9.67;;;10.40;99.90;;;;;;5036883;28;20481;-72
2023/12/29 07:18:41;;;;;;;9.60;9.40;;;10.40;99.90;;;;;;5045324;28;20456;-73
2023/12/29 07:21:07;;;;;;;9.53;9.33;;;10.50;99.90;;;;;;5039504;28;20795;-73
2023/12/29 07:23:34;;;;;;;10.20;10.00;;;10.50;99.90;;;;;;5034675;28;20487;-71
2023/12/29 07:26:01;;;;;;;14.23;13.73;;;10.40;99.90;;;;;;5046549;28;20453;-70
2023/12/29 07:28:28;;;;;;;18.00;16.93;;;10.30;99.90;;;;;;5046630;28;20456;-73
2023/12/29 07:30:55;;;;;;;16.50;15.60;;;10.10;99.90;;;;;;5046877;28;20476;-71
2023/12/29 07:33:24;;;;;;;16.83;15.93;;;9.90;99.90;;;;;;5043616;28;20822;-72
2023/12/29 07:35:51;;;;;;;16.53;15.73;;;9.70;99.90;;;;;;5041896;28;20467;-73
2023/12/29 07:38:18;;;;;;;15.80;15.10;;;9.60;99.90;;;;;;5037740;28;20808;-72
2023/12/29 07:40:45;;;;;;;16.00;15.30;;;9.50;99.90;;;;;;5046879;28;20456;-73
2023/12/29 07:43:12;;;;;;;15.40;14.80;;;9.40;99.90;;;;;;5042796;28;20473;-73
2023/12/29 07:45:39;;;;;;;14.70;14.20;;;9.40;99.90;;;;;;5046023;28;20460;-73
2023/12/29 07:48:07;;;;;;;14.13;13.63;;;9.40;99.90;;;;;;5037633;28;21069;-73
2023/12/29 07:50:37;;;;;;;14.13;13.73;;;9.30;99.90;;;;;;5036444;28;20482;-71
2023/12/29 07:53:05;;;;;;;13.80;13.40;;;9.30;99.90;;;;;;5040613;28;20489;-71
2023/12/29 07:55:34;;;;;;;13.27;12.87;;;9.30;99.90;;;;;;5037308;28;20915;-71
2023/12/29 07:58:00;;;;;;;13.07;12.67;;;9.30;99.90;;;;;;5043756;28;20468;-70
2023/12/29 08:00:27;;;;;;;13.60;13.20;;;9.20;99.90;;;;;;5042433;28;20978;-71
2023/12/29 08:02:54;;;;;;;13.80;13.40;;;9.20;99.90;;;;;;5040784;28;20484;-73
2023/12/29 08:05:20;;;;;;;13.63;13.23;;;9.20;99.90;;;;;;5036079;28;20513;-74
2023/12/29 08:07:49;;;;;;;13.77;13.37;;;9.10;99.90;;;;;;5045989;28;20452;-71
2023/12/29 08:10:16;;;;;;;12.90;12.60;;;9.20;99.90;;;;;;5047238;28;20463;-73
2023/12/29 08:12:43;;;;;;;12.80;12.50;;;9.10;99.90;;;;;;5041345;28;20488;-71
2023/12/29 08:15:11;;;;;;;13.30;13.00;;;9.10;99.90;;;;;;5046246;28;20460;-71
2023/12/29 08:17:38;;;;;;;13.20;12.90;;;9.10;99.90;;;;;;5043333;28;20490;-72
2023/12/29 08:20:07;;;;;;;12.67;12.37;;;9.10;99.90;;;;;;5035275;28;20938;-73
2023/12/29 08:22:34;;;;;;;12.80;12.50;;;9.10;99.90;;;;;;5041316;28;20501;-72
2023/12/29 08:25:03;;;;;;;13.00;12.70;;;9.10;99.90;;;;;;5035473;28;20469;-71
2023/12/29 08:27:30;;;;;;;12.27;11.97;;;9.10;99.90;;;;;;5044407;28;20476;-75
2023/12/29 08:29:57;;;;;;;13.30;13.00;;;9.10;99.90;;;;;;5039607;28;20851;-73
2023/12/29 08:32:24;;;;;;;13.10;12.80;;;9.10;99.90;;;;;;5039148;28;20461;-75
2023/12/29 08:34:51;;;;;;;13.27;12.97;;;9.10;99.90;;;;;;5035037;28;21007;-74
2023/12/29 08:37:19;;;;;;;12.70;12.40;;;9.20;99.90;;;;;;5040858;28;20562;-75
2023/12/29 08:39:46;;;;;;;12.50;12.20;;;9.20;99.90;;;;;;5045997;28;20812;-75
2023/12/29 08:42:15;;;;;;;12.90;12.60;;;9.10;99.90;;;;;;5033952;28;20461;-74
2023/12/29 08:44:41;;;;;;;12.90;12.60;;;9.20;99.90;;;;;;5046072;28;20453;-73
2023/12/29 08:47:09;;;;;;;12.90;12.60;;;9.10;99.90;;;;;;5045974;28;20472;-72
2023/12/29 08:49:37;;;;;;;12.70;12.40;;;9.20;99.90;;;;;;5036944;28;20954;-74
2023/12/29 08:52:04;;;;;;;12.70;12.40;;;9.10;99.90;;;;;;5026111;28;20670;-74
2023/12/29 08:54:31;;;;;;;12.30;12.00;;;9.10;99.90;;;;;;5027174;28;20473;-74
2023/12/29 08:56:58;;;;;;;11.07;10.87;;;9.10;99.90;;;;;;5031729;28;20491;-73
2023/12/29 08:59:26;;;;;;;10.57;10.37;;;9.20;99.90;;;;;;5030050;28;20821;-75
2023/12/29 09:01:53;;;;;;;11.80;11.50;;;9.20;99.90;;;;;;5028546;28;20485;-73
2023/12/29 09:04:20;;;;;;;11.40;11.20;;;9.20;99.90;;;;;;5024330;28;20469;-73
2023/12/29 09:06:47;;;;;;;11.20;11.00;;;9.20;99.90;;;;;;5027890;28;20464;-72
2023/12/29 09:09:14;;;;;;;12.30;12.00;;;9.20;99.90;;;;;;5035900;28;20563;-76
2023/12/29 09:11:40;;;;;;;13.17;12.87;;;9.20;99.90;;;;;;5022432;28;20464;-74
2023/12/29 09:14:07;;;;;;;12.63;12.33;;;9.20;99.90;;;;;;5032232;28;20473;-73
2023/12/29 09:16:36;;;;;;;13.20;12.90;;;9.30;99.90;;;;;;5038276;28;20534;-72
2023/12/29 09:19:03;;;;;;;12.80;12.50;;;9.30;99.90;;;;;;5030613;28;20461;-73
2023/12/29 09:21:30;;;;;;;12.67;12.37;;;9.30;99.90;;;;;;5030853;28;20801;-72
2023/12/29 09:23:58;;;;;;;14.20;13.80;;;9.30;99.90;;;;;;5035543;28;20540;-74
2023/12/29 09:26:25;;;;;;;13.10;12.80;;;9.30;99.90;;;;;;5034123;28;20555;-73
2023/12/29 09:28:51;;;;;;;13.70;13.30;;;9.30;99.90;;;;;;5036660;28;20576;-72
2023/12/29 09:31:18;;;;;;;11.80;11.50;;;9.40;99.90;;;;;;5025940;28;20460;-75
2023/12/29 09:33:46;;;;;;;12.00;11.70;;;9.40;99.90;;;;;;5038758;28;20805;-75
2023/12/29 09:36:13;;;;;;;12.37;12.07;;;9.50;99.90;;;;;;5036284;28;20492;-72
2023/12/29 09:38:41;;;;;;;11.90;11.60;;;9.50;99.90;;;;;;5037566;28;21039;-75
2023/12/29 09:41:14;;;;;;;10.83;10.63;;;9.50;99.90;;;;;;5036805;28;20456;-73
2023/12/29 09:43:42;;;;;;;11.47;11.20;;;9.50;99.90;;;;;;5028804;28;20452;-72
2023/12/29 09:46:09;;;;;;;11.20;11.00;;;9.60;99.90;;;;;;5022850;28;20469;-73
2023/12/29 09:48:38;;;;;;;12.00;11.70;;;9.70;99.90;;;;;;5032678;28;20456;-72
2023/12/29 09:51:09;;;;;;;12.60;12.30;;;9.90;99.90;;;;;;5028705;28;20802;-75
2023/12/29 09:53:37;;;;;;;12.57;12.27;;;9.80;99.90;;;;;;5034998;28;20466;-75
2023/12/29 09:56:06;;;;;;;12.13;11.83;;;9.90;99.90;;;;;;5035494;28;20457;-75
2023/12/29 09:58:33;;;;;;;12.03;11.73;;;10.00;99.90;;;;;;5031402;28;20607;-73
2023/12/29 10:01:04;;;;;;;11.97;11.67;;;10.00;99.90;;;;;;5031886;28;20461;-73
2023/12/29 10:03:31;;;;;;;13.37;13.03;;;10.10;99.90;;;;;;5036159;28;20560;-72
2023/12/29 10:06:02;;;;;;;14.23;13.83;;;10.10;99.90;;;;;;5033446;28;20499;-72
2023/12/29 10:08:33;;;;;;;13.73;13.33;;;10.10;99.90;;;;;;5036028;28;20544;-74
2023/12/29 10:11:02;;;;;;;12.07;11.77;;;10.20;99.90;;;;;;5036134;28;20773;-74
2023/12/29 10:13:32;;;;;;;12.00;11.70;;;10.20;99.90;;;;;;5029397;28;20464;-72
2023/12/29 10:16:10;;;;;;;12.63;12.33;;;10.20;99.90;;;;;;5028818;28;20501;-72
2023/12/29 10:18:43;;;;;;;12.30;12.00;;;10.30;99.90;;;;;;5033612;28;20460;-73
2023/12/29 10:21:20;;;;;;;12.20;11.90;;;10.30;99.90;;;;;;5027270;28;20484;-73
2023/12/29 10:23:55;;;;;;;12.70;12.40;;;10.30;99.90;;;;;;5032712;28;20493;-72
2023/12/29 10:26:23;;;;;;;12.10;11.80;;;10.40;99.90;;;;;;5029022;28;20467;-72
2023/12/29 10:28:50;;;;;;;12.43;12.13;;;10.40;99.90;;;;;;5035954;28;21224;-73
2023/12/29 10:31:17;;;;;;;12.73;12.43;;;10.50;99.90;;;;;;5036607;28;20453;-72
2023/12/29 10:33:50;;;;;;;12.40;12.10;;;10.40;99.90;;;;;;5030071;28;20606;-73
2023/12/29 10:36:17;;;;;;;12.90;12.60;;;10.50;99.90;;;;;;5035018;28;20494;-74
2023/12/29 10:38:44;;;;;;;12.20;11.90;;;10.60;99.90;;;;;;5027582;28;20461;-75
2023/12/29 10:41:15;;;;;;;11.33;11.03;;;10.60;99.90;;;;;;5034876;28;20472;-73
2023/12/29 10:43:42;;;;;;;11.20;10.93;;;10.60;99.90;;;;;;5029752;28;20472;-73
2023/12/29 10:46:10;;;;;;;10.70;10.50;;;10.60;99.90;;;;;;5034079;28;20480;-76
2023/12/29 10:48:37;;;;;;;11.00;10.70;;;10.70;99.90;;;;;;5035407;28;20461;-73
2023/12/29 10:51:05;;;;;;;11.90;11.60;;;10.70;99.90;;;;;;5021653;28;20469;-73
2023/12/29 10:53:32;;;;;;;11.97;11.67;;;10.80;99.90;;;;;;5036881;28;20552;-74
2023/12/29 10:55:59;;;;;;;11.97;11.67;;;10.80;99.90;;;;;;5032918;28;20457;-75
2023/12/29 10:58:29;;;;;;;11.93;11.63;;;10.90;99.90;;;;;;5035627;28;20504;-71
2023/12/29 11:00:56;;;;;;;12.77;12.37;;;10.90;99.90;;;;;;5034466;28;20543;-71
2023/12/29 11:03:23;;;;;;;12.90;12.50;;;10.90;99.90;;;;;;5034097;28;20461;-72
2023/12/29 11:05:51;;;;;;;13.50;13.10;;;10.90;99.90;;;;;;5030770;28;20465;-72
2023/12/29 11:08:19;;;;;;;13.67;13.27;;;10.70;99.90;;;;;;5024610;28;20461;-71
2023/12/29 11:10:46;;;;;;;14.13;13.63;;;10.70;99.90;;;;;;5030198;28;20472;-71
2023/12/29 11:13:14;;;;;;;15.00;14.50;;;10.80;99.90;;;;;;5029525;28;20457;-72
2023/12/29 11:15:45;;;;;;;14.47;13.97;;;10.90;99.90;;;;;;5033986;28;20536;-73
2023/12/29 11:18:14;;;;;;;14.50;14.00;;;10.80;99.90;;;;;;5033029;28;20857;-71
2023/12/29 11:20:42;;;;;;;14.00;13.50;;;10.80;99.90;;;;;;5031557;28;20463;-72
2023/12/29 11:23:11;;;;;;;13.63;13.23;;;10.80;99.90;;;;;;5029193;28;20469;-72
2023/12/29 11:25:38;;;;;;;13.87;13.37;;;10.80;99.90;;;;;;5029391;28;20518;-71
2023/12/29 11:28:06;;;;;;;14.10;13.60;;;10.80;99.90;;;;;;5034795;28;20470;-71
2023/12/29 11:30:34;;;;;;;14.20;13.70;;;10.80;99.90;;;;;;5029786;28;20488;-71
2023/12/29 11:33:07;;;;;;;13.53;13.10;;;10.80;99.90;;;;;;5031871;28;20465;-73
2023/12/29 11:35:37;;;;;;;14.17;13.67;;;10.90;99.90;;;;;;5033247;28;20504;-72
2023/12/29 11:38:35;;;;;;;13.87;13.37;;;10.90;99.90;;;;;;5032898;28;20555;-72
2023/12/29 11:41:08;;;;;;;13.47;13.07;;;10.90;99.90;;;;;;5026916;28;20546;-71
2023/12/29 11:43:37;;;;;;;12.67;12.27;;;10.80;99.90;;;;;;5027464;28;20471;-73
2023/12/29 11:46:04;;;;;;;10.87;10.57;;;10.70;99.90;;;;;;5033600;28;20557;-72
2023/12/29 11:48:58;;;;;;;10.17;9.97;;;10.70;99.90;;;;;;5030237;28;20475;-71
2023/12/29 11:51:35;;;;;;;9.90;9.70;;;10.80;99.90;;;;;;5027689;28;21250;-71
2023/12/29 11:54:04;;;;;;;9.17;8.97;;;10.70;99.90;;;;;;5035524;28;20472;-73
2023/12/29 11:56:40;;;;;;;8.67;8.57;;;10.70;99.90;;;;;;5021292;28;20477;-72
2023/12/29 11:59:20;;;;;;;7.80;7.70;;;10.80;99.90;;;;;;5032582;28;20477;-71
2023/12/29 12:01:51;;;;;;;7.30;7.20;;;10.80;99.90;;;;;;5031183;28;20469;-72
2023/12/29 12:04:40;;;;;;;7.10;7.00;;;10.80;99.90;;;;;;5032029;28;20556;-70
2023/12/29 12:07:09;;;;;;;6.40;6.30;;;10.90;99.90;;;;;;5034463;28;20535;-73
2023/12/29 12:09:35;;;;;;;5.90;5.80;;;10.90;99.90;;;;;;5029753;28;20476;-71
2023/12/29 12:12:03;;;;;;;5.03;4.97;;;10.90;99.90;;;;;;5031904;28;20495;-71
2023/12/29 12:14:50;;;;;;;4.87;4.87;;;10.90;99.90;;;;;;5032421;28;20543;-71
2023/12/29 12:17:29;;;;;;;5.30;5.20;;;10.90;99.90;;;;;;5027964;28;20932;-73
2023/12/29 12:20:02;;;;;;;6.03;5.93;;;10.90;99.90;;;;;;5034446;28;20462;-71
2023/12/29 12:22:31;;;;;;;7.03;6.93;;;10.80;99.90;;;;;;5031147;28;21102;-72
2023/12/29 12:25:00;;;;;;;9.57;9.37;;;10.70;99.90;;;;;;5032814;28;20878;-71
2023/12/29 12:27:27;;;;;;;11.60;11.30;;;10.50;99.90;;;;;;5027797;28;21142;-71
2023/12/29 12:29:59;;;;;;;12.80;12.50;;;10.30;99.90;;;;;;5029410;28;20485;-70
2023/12/29 12:32:27;;;;;;;12.50;12.20;;;10.30;99.90;;;;;;5028523;28;21204;-72
2023/12/29 12:34:53;;;;;;;12.47;12.17;;;10.40;99.90;;;;;;5032637;28;20465;-72
2023/12/29 12:37:23;;;;;;;12.30;12.00;;;10.30;99.90;;;;;;5034193;28;20503;-73
2023/12/29 12:39:50;;;;;;;12.47;12.17;;;10.30;99.90;;;;;;5025000;28;20468;-70
2023/12/29 12:42:18;;;;;;;12.63;12.33;;;10.30;99.90;;;;;;5029209;28;20489;-71